Terminal Aerodrome Forecast
Issued by NWS Tuscon, AZ

Home | Current Version | Previous Version | Text Only | Print | Product List | Glossary On
Versions: 1 2 3 4 5 6 7 8 9 10 11 12 13
567
FTUS45 KTWC 240520
TAFDUG
TAF
KDUG 240520Z 2406/2506 01007KT P6SM SKC
     FM241000 VRB03KT P6SM SKC
     FM242000 30014G22KT P6SM SCT250
     FM250200 34009KT P6SM SKC=

USA.gov is the U.S. government's official web portal to all federal, state and local government web resources and services.